Latest Weather Observations for Hobart Airport

IDT60801

Issued at 3:32 pm EST Friday 29 July 2016 (issued every 30 minutes, with the page automatically refreshed every 10 minutes)

About weather observations | Map of weather stations | Latest weather observations for TAS | Other Formats
Station Details ID: 094008 Name: HOBART AIRPORT Lat: -42.83 Lon: 147.50 Height: 4.0 m
Data from the previous 72 hours. | See also: Recent months at Hobart Airport
Date/Time
EST
Temp
°C
App
Temp
°C
Dew
Point
°C
Rel
Hum
%
Delta-T
°C
Wind Press
QNH
hPa
Press
MSL
hPa
Rain since
9am
mm
Dir  Spd
km/h
Gust
km/h
Spd
kts
Gust
kts
29/03:00pm 12.5 5.8 3.9 56 3.9 WNW 28 33 15 18 1005.6 1005.6 0.2
29/02:30pm 13.0 6.9 2.9 50 4.5 WNW 24 37 13 20 1005.1 1005.1 0.2
29/02:23pm 13.0 5.3 3.4 52 4.3 WNW 33 52 18 28 1004.9 1004.9 0.2
29/02:00pm 12.9 4.9 3.6 53 4.2 W 35 50 19 27 1004.6 1004.6 0.2
29/01:46pm 13.0 5.4 3.7 53 4.2 WNW 33 52 18 28 1004.8 1004.8 0.2
29/01:30pm 13.1 5.4 3.3 51 4.4 WNW 33 46 18 25 1004.6 1004.6 0.2
29/01:16pm 12.9 5.2 3.6 53 4.2 WNW 33 54 18 29 1004.6 1004.6 0.2
29/01:00pm 12.5 5.1 4.9 60 3.5 WNW 33 41 18 22 1005.1 1005.1 0.2
29/12:30pm 12.2 5.4 5.3 62 3.2 WNW 30 39 16 21 1005.6 1005.6 0.2
29/12:00pm 13.2 5.2 4.0 53 4.2 WNW 35 46 19 25 1005.4 1005.4 0.2
29/11:35am 12.7 4.0 4.1 56 3.9 WNW 39 59 21 32 1005.5 1005.5 0.2
29/11:30am 12.3 4.6 5.2 62 3.3 WNW 35 48 19 26 1005.4 1005.4 0.2
29/11:12am 12.6 6.4 6.1 64 3.1 WNW 28 50 15 27 1006.1 1006.1 0.2
29/11:00am 12.7 8.6 6.4 65 3.0 NNW 17 26 9 14 1006.1 1006.1 0.2
29/10:45am 11.4 6.6 7.3 76 2.0 WNW 22 33 12 18 1006.4 1006.4 0.2
29/10:30am 10.9 6.7 7.4 79 1.7 W 19 26 10 14 1006.8 1006.8 0.2
29/10:00am 11.2 4.6 6.1 71 2.4 NW 30 44 16 24 1006.5 1006.5 0.0
29/09:52am 11.8 6.8 4.6 61 3.3 NW 20 32 11 17 1006.3 1006.3 0.0
29/09:30am 11.4 6.0 4.3 61 3.2 NW 22 32 12 17 1006.4 1006.4 0.0
29/09:00am 11.4 7.0 4.6 63 3.1 NNW 17 28 9 15 1006.3 1006.3 0.0
29/08:30am 11.3 6.6 3.4 58 3.5 NNW 17 26 9 14 1006.7 1006.7 0.0
29/08:00am 10.0 4.9 4.2 67 2.6 NNW 20 30 11 16 1006.8 1006.8 0.0
29/07:30am 9.8 4.8 3.6 65 2.7 NNW 19 28 10 15 1007.0 1007.0 0.0
29/07:00am 10.0 4.4 3.4 63 2.9 NW 22 30 12 16 1006.8 1006.8 0.0
29/06:30am 10.0 4.4 3.6 64 2.8 NW 22 28 12 15 1007.0 1007.0 0.0
29/06:00am 9.5 4.5 3.8 67 2.5 NNW 19 26 10 14 1007.0 1007.0 0.0
29/05:30am 9.5 4.0 3.8 67 2.5 NW 22 30 12 16 1007.0 1007.0 0.0
29/05:00am 9.3 5.2 4.1 70 2.3 NNW 15 20 8 11 1007.4 1007.4 0.0
29/04:30am 9.5 5.4 4.3 70 2.3 NNW 15 20 8 11 1007.5 1007.5 0.0
29/04:00am 9.5 5.0 4.1 69 2.4 NNW 17 24 9 13 1007.5 1007.5 0.0
29/03:30am 9.8 5.6 3.9 66 2.6 NNW 15 20 8 11 1008.0 1008.0 0.0
29/03:00am 10.5 4.9 3.2 60 3.2 NNW 22 30 12 16 1008.2 1008.2 0.0
29/02:30am 10.2 5.0 3.3 62 3.0 NNW 20 28 11 15 1008.4 1008.4 0.0
29/02:00am 10.1 4.9 3.5 63 2.9 NNW 20 30 11 16 1008.8 1008.8 0.0
29/01:30am 9.8 4.9 3.9 66 2.6 NNW 19 28 10 15 1009.0 1009.0 0.0
29/01:00am 10.1 5.9 3.7 64 2.8 NNW 15 20 8 11 1009.2 1009.2 0.0
29/12:30am 9.9 6.1 4.0 67 2.6 NNW 13 19 7 10 1009.6 1009.6 0.0
29/12:00am 9.9 6.1 3.8 66 2.7 N 13 20 7 11 1009.7 1009.7 0.0
 
Date/Time
EST
Temp
°C
App
Temp
°C
Dew
Point
°C
Rel
Hum
%
Delta-T
°C
Wind Press
QNH
hPa
Press
MSL
hPa
Rain since
9am
mm
Dir  Spd
km/h
Gust
km/h
Spd
kts
Gust
kts
28/11:30pm 10.2 6.0 3.9 65 2.8 NNW 15 28 8 15 1010.2 1010.2 0.0
28/11:00pm 10.3 6.1 3.7 63 2.9 N 15 22 8 12 1010.2 1010.2 0.0
28/10:30pm 10.4 5.4 3.6 63 3.0 NW 19 24 10 13 1010.5 1010.5 0.0
28/10:00pm 10.3 5.3 3.7 63 2.9 NNW 19 24 10 13 1010.5 1010.5 0.0
28/09:30pm 10.7 5.5 3.7 62 3.1 NNW 20 28 11 15 1010.7 1010.7 0.0
28/09:00pm 10.3 5.4 4.0 65 2.8 NNW 19 30 10 16 1010.8 1010.8 0.0
28/08:30pm 11.2 5.1 2.9 56 3.6 NW 24 30 13 16 1010.7 1010.7 0.0
28/08:00pm 11.4 3.8 2.6 54 3.8 NW 32 48 17 26 1010.8 1010.8 0.0
28/07:30pm 11.2 4.3 2.7 56 3.7 NW 28 35 15 19 1010.8 1010.8 0.0
28/07:00pm 11.7 3.9 1.9 51 4.2 WNW 32 52 17 28 1010.6 1010.6 0.0
28/06:30pm 11.1 3.8 2.2 54 3.8 NW 30 39 16 21 1010.0 1010.0 0.0
28/06:00pm 12.1 6.5 1.2 47 4.6 NW 20 32 11 17 1009.8 1009.8 0.0
28/05:30pm 12.1 6.5 0.9 46 4.7 NW 20 43 11 23 1009.5 1009.5 0.0
28/05:00pm 12.0 4.5 1.4 48 4.5 WNW 30 54 16 29 1009.0 1009.0 0.0
28/04:42pm 12.6 5.1 1.4 46 4.8 WNW 30 54 16 29 1008.5 1008.5 0.0
28/04:30pm 12.4 5.1 2.6 51 4.3 WNW 30 43 16 23 1008.5 1008.5 0.0
28/04:00pm 13.1 4.9 2.7 49 4.6 WNW 35 52 19 28 1008.0 1008.0 0.0
28/03:30pm 13.6 3.8 3.1 49 4.7 W 44 69 24 37 1007.0 1007.0 0.0
28/03:00pm 13.8 2.1 3.1 48 4.8 W 54 80 29 43 1005.6 1005.6 0.0
28/02:30pm 14.2 1.7 2.2 44 5.3 WNW 57 76 31 41 1004.8 1004.8 0.0
28/02:00pm 14.1 2.4 3.3 48 4.9 WNW 54 72 29 39 1005.2 1005.2 0.0
28/01:30pm 14.3 4.1 3.0 46 5.1 WNW 46 63 25 34 1006.0 1006.0 0.0
28/01:00pm 14.0 3.8 3.4 49 4.8 WNW 46 72 25 39 1007.0 1007.0 0.0
28/12:30pm 14.2 4.7 3.7 49 4.8 WNW 43 70 23 38 1007.0 1007.0 0.0
28/12:00pm 14.7 4.2 3.8 48 5.0 WNW 48 67 26 36 1006.7 1006.7 0.0
28/11:48am 14.9 5.2 4.1 48 5.0 W 44 63 24 34 1006.4 1006.4 0.0
28/11:30am 14.6 4.1 3.4 47 5.1 W 48 65 26 35 1006.6 1006.6 0.0
28/11:00am 14.6 4.2 4.0 49 4.9 WNW 48 63 26 34 1007.2 1007.2 0.0
28/10:30am 14.3 4.7 3.5 48 4.9 WNW 43 59 23 32 1007.2 1007.2 0.0
28/10:00am 14.2 4.7 4.0 50 4.7 WNW 43 59 23 32 1007.0 1007.0 0.0
28/09:33am 14.2 5.4 3.7 49 4.8 WNW 39 57 21 31 1007.2 1007.2 0.0
28/09:30am 14.1 5.7 3.8 50 4.7 WNW 37 54 20 29 1007.3 1007.3 0.0
28/09:11am 13.8 5.0 3.4 49 4.7 WNW 39 57 21 31 1007.3 1007.3 0.0
28/09:00am 13.4 5.8 3.7 52 4.4 WNW 33 59 18 32 1007.3 1007.3 0.6
28/08:30am 12.4 5.4 4.3 57 3.7 NW 30 52 16 28 1007.3 1007.3 0.6
28/08:28am 12.3 5.7 4.1 57 3.7 NW 28 52 15 28 1007.2 1007.2 0.6
28/08:00am 11.8 5.2 4.0 59 3.5 NW 28 44 15 24 1006.9 1006.9 0.6
28/07:49am 12.0 4.9 3.7 57 3.7 NW 30 48 16 26 1006.8 1006.8 0.6
28/07:30am 11.0 4.7 3.8 61 3.2 NNW 26 35 14 19 1006.3 1006.3 0.6
28/07:00am 10.8 4.8 3.3 60 3.3 NW 24 33 13 18 1006.7 1006.7 0.6
28/06:30am 10.5 4.0 2.9 59 3.3 NW 26 33 14 18 1006.7 1006.7 0.6
28/06:00am 10.7 4.5 2.0 55 3.7 WNW 24 37 13 20 1006.5 1006.5 0.6
28/05:30am 9.8 4.1 2.6 61 3.1 WNW 22 35 12 19 1006.8 1006.8 0.6
28/05:00am 10.8 3.0 1.9 54 3.8 NW 32 39 17 21 1006.8 1006.8 0.6
28/04:30am 10.1 3.9 2.4 59 3.3 NW 24 33 13 18 1007.1 1007.1 0.6
28/04:18am 10.5 3.1 2.0 55 3.6 WNW 30 70 16 38 1007.4 1007.4 0.6
28/04:14am 10.9 3.8 1.4 52 4.0 NW 28 70 15 38 1007.3 1007.3 0.6
28/04:00am 10.8 4.1 1.3 52 4.0 WNW 26 39 14 21 1007.4 1007.4 0.6
28/03:30am 10.9 3.1 1.7 53 3.9 W 32 46 17 25 1007.6 1007.6 0.6
28/03:09am 11.1 4.1 1.7 52 4.0 W 28 52 15 28 1007.6 1007.6 0.6
28/03:00am 11.1 4.1 1.7 52 4.0 WNW 28 41 15 22 1007.6 1007.6 0.6
28/02:30am 11.0 3.2 1.8 53 3.9 W 32 54 17 29 1007.9 1007.9 0.6
28/02:23am 11.1 4.0 1.4 51 4.1 WNW 28 54 15 29 1007.9 1007.9 0.6
28/02:00am 11.4 4.6 0.5 47 4.5 WNW 26 37 14 20 1007.7 1007.7 0.6
28/01:32am 10.9 3.4 1.1 51 4.1 WNW 30 48 16 26 1007.3 1007.3 0.6
28/01:30am 11.1 3.1 0.7 48 4.3 WNW 32 43 17 23 1007.2 1007.2 0.6
28/01:20am 11.2 3.3 0.9 49 4.3 WNW 32 54 17 29 1007.0 1007.0 0.6
28/01:00am 10.9 3.8 1.1 51 4.1 WNW 28 39 15 21 1006.9 1006.9 0.6
28/12:30am 10.9 3.0 0.8 49 4.2 WNW 32 48 17 26 1006.5 1006.5 0.6
28/12:08am 10.8 2.8 0.6 49 4.2 WNW 32 52 17 28 1006.2 1006.2 0.6
28/12:00am 10.6 2.5 1.0 51 4.0 WNW 33 48 18 26 1006.1 1006.1 0.6
 
Date/Time
EST
Temp
°C
App
Temp
°C
Dew
Point
°C
Rel
Hum
%
Delta-T
°C
Wind Press
QNH
hPa
Press
MSL
hPa
Rain since
9am
mm
Dir  Spd
km/h
Gust
km/h
Spd
kts
Gust
kts
27/11:36pm 10.8 1.8 0.3 48 4.3 WNW 37 56 20 30 1005.8 1005.8 0.6
27/11:30pm 11.0 2.9 0.0 46 4.5 WNW 32 48 17 26 1005.7 1005.7 0.6
27/11:00pm 10.8 3.5 -0.3 46 4.5 W 28 39 15 21 1005.4 1005.4 0.6
27/10:30pm 11.1 3.4 -0.2 45 4.6 W 30 46 16 25 1005.4 1005.4 0.6
27/10:04pm 10.8 2.7 0.0 47 4.4 W 32 52 17 28 1005.0 1005.0 0.6
27/10:00pm 10.6 2.6 0.7 50 4.1 W 32 41 17 22 1005.2 1005.2 0.6
27/09:30pm 10.2 3.0 1.0 53 3.8 WNW 28 39 15 21 1004.6 1004.6 0.6
27/09:07pm 10.6 3.4 1.0 51 4.0 WNW 28 46 15 25 1004.4 1004.4 0.6
27/09:00pm 10.0 4.1 1.7 56 3.5 WNW 22 30 12 16 1004.5 1004.5 0.6
27/08:30pm 9.4 3.4 3.4 66 2.6 WNW 24 35 13 19 1003.4 1003.4 0.6
27/08:00pm 9.1 2.5 4.4 72 2.1 W 28 37 15 20 1003.3 1003.3 0.6
27/07:30pm 8.7 2.8 3.9 72 2.1 WNW 24 32 13 17 1003.1 1003.1 0.4
27/07:25pm 8.7 2.0 3.9 72 2.1 WNW 28 37 15 20 1002.9 1002.9 0.4
27/07:00pm 7.8 -0.7 3.4 74 1.9 NW 37 52 20 28 1001.6 1001.6 0.4
27/06:30pm 7.4 -0.2 2.9 73 1.9 NW 32 41 17 22 1001.8 1001.8 0.4
27/06:00pm 7.7 -1.3 2.5 69 2.2 NW 39 63 21 34 1001.7 1001.7 0.0
27/05:30pm 8.6 -2.1 0.1 55 3.4 WNW 46 67 25 36 1000.8 1000.8 0.0
27/05:00pm 8.9 0.2 -0.8 50 3.8 NW 35 57 19 31 1000.6 1000.6 0.0
27/04:58pm 8.5 0.4 0.0 55 3.4 NW 32 56 17 30 1000.8 1000.8 0.0
27/04:30pm 8.6 2.2 1.0 59 3.1 NNW 24 39 13 21 1001.5 1001.5 0.0
27/04:00pm 9.4 2.7 -1.0 48 4.1 NNW 24 37 13 20 1002.2 1002.2 0.0
27/03:30pm 9.4 1.9 -1.4 47 4.2 NNW 28 39 15 21 1002.0 1002.0 0.0
27/03:00pm 9.2 -2.1 -1.3 48 4.1 WNW 48 63 26 34 1002.5 1002.5 0.0
27/02:30pm 9.2 0.0 -1.7 46 4.2 WNW 37 61 20 33 1002.4 1002.4 0.0
27/02:12pm 9.2 1.6 -2.0 45 4.3 WNW 28 48 15 26 1002.4 1002.4 0.0
27/02:00pm 9.3 2.5 -1.5 47 4.2 NW 24 39 13 21 1002.8 1002.8 0.0
27/01:40pm 9.0 1.1 -1.7 47 4.1 NW 30 48 16 26 1003.2 1003.2 0.0
27/01:30pm 8.9 0.5 -1.1 49 3.9 NW 33 43 18 23 1003.3 1003.3 0.0
27/01:00pm 9.0 0.6 -2.7 43 4.4 WNW 32 44 17 24 1003.8 1003.8 0.0
27/12:30pm 9.0 1.7 -2.7 43 4.4 WNW 26 39 14 21 1003.6 1003.6 0.0
27/12:23pm 9.0 1.4 -2.0 46 4.2 WNW 28 48 15 26 1003.6 1003.6 0.0
27/12:00pm 9.2 3.1 2.6 63 2.8 WNW 24 35 13 19 1003.6 1003.6 0.0
27/11:30am 9.4 2.8 -0.7 49 4.0 W 24 33 13 18 1003.9 1003.9 0.0
27/11:00am 8.9 1.3 -1.8 47 4.1 W 28 35 15 19 1004.1 1004.1 0.0
27/10:30am 8.6 2.6 -1.9 47 4.0 WNW 20 30 11 16 1004.2 1004.2 0.0
27/10:00am 8.0 2.6 -1.4 51 3.6 WNW 17 24 9 13 1004.0 1004.0 0.0
27/09:30am 7.9 2.1 -1.5 51 3.6 NW 19 28 10 15 1003.9 1003.9 0.0
27/09:00am 7.2 2.6 -1.2 55 3.2 NW 13 20 7 11 1003.9 1003.9 0.4
27/08:30am 6.7 2.9 -0.9 58 2.9 NNW 9 15 5 8 1003.6 1003.6 0.2
27/08:00am 5.9 1.6 -1.3 60 2.7 N 11 17 6 9 1003.0 1003.0 0.2
27/07:30am 4.7 0.5 -1.2 65 2.2 WNW 11 15 6 8 1002.4 1002.4 0.2
27/07:00am 4.3 -0.1 0.1 74 1.6 NW 13 19 7 10 1001.8 1001.8 0.2
27/06:30am 5.2 0.1 -1.6 61 2.5 W 15 24 8 13 1000.9 1000.9 0.2
27/06:00am 6.1 0.1 -1.7 57 2.9 WSW 20 32 11 17 1000.7 1000.7 0.2
27/05:30am 6.7 0.6 -2.2 53 3.3 W 20 30 11 16 1000.0 1000.0 0.2
27/05:00am 6.4 -0.4 0.6 66 2.3 WSW 26 37 14 20 999.4 999.4 0.2
27/04:30am 6.4 -1.1 1.2 69 2.1 SW 30 43 16 23 998.5 998.5 0.2
27/04:00am 6.7 -0.3 1.8 71 2.0 SW 28 35 15 19 997.7 997.7 0.2
27/03:30am 6.9 0.8 2.9 76 1.7 WSW 24 33 13 18 996.8 996.9 0.2
27/03:00am 7.5 0.2 2.5 70 2.1 W 30 41 16 22 995.9 996.0 0.2
27/02:30am 7.5 2.7 2.5 70 2.1 NNW 17 37 9 20 994.9 995.0 0.2
27/02:00am 5.9 0.7 2.5 79 1.4 NNW 19 28 10 15 994.2 994.3 0.0
27/01:30am 6.2 1.0 2.6 78 1.5 NNW 19 32 10 17 993.9 994.0 0.0
27/01:00am 6.4 1.8 1.7 72 1.9 NNW 15 22 8 12 994.5 994.6 0.0
27/12:30am 7.1 1.6 0.9 65 2.5 NNW 19 30 10 16 994.1 994.2 0.0
27/12:00am 7.0 2.3 0.8 64 2.5 N 15 28 8 15 994.0 994.1 0.0
 
Date/Time
EST
Temp
°C
App
Temp
°C
Dew
Point
°C
Rel
Hum
%
Delta-T
°C
Wind Press
QNH
hPa
Press
MSL
hPa
Rain since
9am
mm
Dir  Spd
km/h
Gust
km/h
Spd
kts
Gust
kts
26/11:30pm 7.3 2.1 0.0 60 2.9 N 17 32 9 17 994.9 995.0 0.0
26/11:00pm 7.0 2.1 -0.4 59 2.9 N 15 26 8 14 995.3 995.4 0.0
26/10:30pm 6.9 1.6 -0.9 57 3.0 NNE 17 20 9 11 995.5 995.6 0.0
26/10:00pm 6.5 0.7 0.1 63 2.5 N 20 33 11 18 996.1 996.2 0.0
26/09:30pm 6.2 0.4 -0.3 63 2.5 N 20 30 11 16 996.6 996.7 0.0
26/09:00pm 5.9 0.4 0.6 69 2.1 N 19 26 10 14 997.4 997.4 0.0
26/08:30pm 6.7 1.1 0.1 63 2.6 NNW 19 28 10 15 997.7 997.7 0.0
26/08:00pm 6.6 0.9 0.5 65 2.4 NNW 20 33 11 18 998.2 998.2 0.0
26/07:30pm 6.0 0.6 1.3 72 1.9 NNW 19 30 10 16 998.8 998.8 0.0
26/07:00pm 6.8 1.2 -0.1 61 2.7 NW 19 24 10 13 999.1 999.1 0.0
26/06:30pm 6.5 2.2 0.7 66 2.3 NW 13 22 7 12 999.2 999.2 0.0
26/06:00pm 6.7 0.5 2.1 72 1.9 WNW 24 32 13 17 999.4 999.4 0.0
26/05:30pm 7.2 0.9 1.6 67 2.3 WNW 24 33 13 18 999.4 999.4 0.0
26/05:00pm 8.2 2.5 0.8 59 3.0 NW 20 28 11 15 999.4 999.4 0.0
26/04:30pm 8.8 1.0 -0.6 51 3.7 NW 30 41 16 22 999.3 999.3 0.0
26/04:00pm 9.0 1.7 -0.3 52 3.7 NW 28 39 15 21 999.1 999.1 0.0

Other Formats:

Comma delimited format used in spreadsheet applications
http://www.bom.gov.au/fwo/IDT60801/IDT60801.94975.axf

JavaScript Object Notation format (JSON) in row-major order
http://www.bom.gov.au/fwo/IDT60801/IDT60801.94975.json